createdAt,value
2023-09-25T00:00:53.942Z,9.745638
2023-09-25T00:01:53.892Z,9.745560
2023-09-25T00:02:53.911Z,9.745685
2023-09-25T00:03:53.952Z,9.745740
2023-09-25T00:04:53.902Z,9.745871
2023-09-25T00:05:53.881Z,9.745785
2023-09-25T00:06:53.853Z,9.745371
2023-09-25T00:07:53.850Z,9.746039
2023-09-25T00:08:53.872Z,9.746082
2023-09-25T00:09:53.834Z,9.746180
2023-09-25T00:10:53.851Z,9.745938
2023-09-25T00:11:53.809Z,9.745558
2023-09-25T00:12:53.815Z,9.745675
2023-09-25T00:13:53.795Z,9.745888
2023-09-25T00:14:53.793Z,9.745749
2023-09-25T00:15:53.924Z,9.745645
2023-09-25T00:16:53.776Z,9.745562
2023-09-25T00:17:53.870Z,9.745633
2023-09-25T00:18:53.898Z,9.745888
2023-09-25T00:19:53.777Z,9.745853
2023-09-25T00:20:53.761Z,9.745772
2023-09-25T00:21:53.741Z,9.745850
2023-09-25T00:22:53.723Z,9.745895
2023-09-25T00:23:53.726Z,9.745584
2023-09-25T00:24:53.744Z,9.745601
2023-09-25T00:25:53.705Z,9.745362
2023-09-25T00:26:53.725Z,9.745416
2023-09-25T00:27:53.787Z,9.745404
2023-09-25T00:28:53.686Z,9.745411
2023-09-25T00:29:53.714Z,9.745652
2023-09-25T00:30:53.682Z,9.745847
2023-09-25T00:31:53.657Z,9.745571
2023-09-25T00:32:53.706Z,9.745632
2023-09-25T00:33:53.725Z,9.745901
2023-09-25T00:34:53.670Z,9.745578
2023-09-25T00:35:53.635Z,9.745491
2023-09-25T00:36:53.627Z,9.745540
2023-09-25T00:37:53.613Z,9.745646
2023-09-25T00:38:53.643Z,9.745808
2023-09-25T00:39:53.640Z,9.745642
2023-09-25T00:40:53.595Z,9.745698
2023-09-25T00:41:53.595Z,9.745618
2023-09-25T00:42:53.578Z,9.745986
2023-09-25T00:43:53.605Z,9.745665
2023-09-25T00:44:53.565Z,9.745664
2023-09-25T00:45:53.562Z,9.745653
2023-09-25T00:46:53.582Z,9.745680
2023-09-25T00:47:53.588Z,9.745681
2023-09-25T00:48:53.592Z,9.745763
2023-09-25T00:49:53.536Z,9.745650
2023-09-25T00:50:53.531Z,9.745565
2023-09-25T00:51:53.515Z,9.745355
2023-09-25T00:52:53.517Z,9.745688
2023-09-25T00:53:53.524Z,9.745532
2023-09-25T00:54:53.504Z,9.745705
2023-09-25T00:55:53.477Z,9.745732
2023-09-25T00:56:53.475Z,9.745369
2023-09-25T00:57:53.489Z,9.745486
2023-09-25T00:58:53.493Z,9.745317
2023-09-25T00:59:53.444Z,9.745582
2023-09-25T01:00:53.592Z,9.745667
2023-09-25T01:01:53.452Z,9.745604
2023-09-25T01:02:53.579Z,9.745624
2023-09-25T01:03:53.461Z,9.745373
2023-09-25T01:04:53.454Z,9.745535
2023-09-25T01:05:54.406Z,9.745684
2023-09-25T01:06:53.397Z,9.745660
2023-09-25T01:07:53.410Z,9.745661
2023-09-25T01:08:53.379Z,9.745278
2023-09-25T01:09:53.367Z,9.745527
2023-09-25T01:10:53.364Z,9.745648
2023-09-25T01:11:53.354Z,9.745623
2023-09-25T01:12:53.380Z,9.745539
2023-09-25T01:13:53.353Z,9.745706
2023-09-25T01:14:53.335Z,9.745555
2023-09-25T01:15:53.328Z,9.745599
2023-09-25T01:16:53.385Z,9.745602
2023-09-25T01:17:53.429Z,9.745825
2023-09-25T01:18:53.340Z,9.745844
2023-09-25T01:19:53.293Z,9.745175
2023-09-25T01:20:53.303Z,9.745564
2023-09-25T01:21:53.305Z,9.745852
2023-09-25T01:22:53.302Z,9.745605
2023-09-25T01:23:53.269Z,9.745365
2023-09-25T01:24:53.264Z,9.745370
2023-09-25T01:25:53.281Z,9.745549
2023-09-25T01:26:53.279Z,9.745404
2023-09-25T01:27:53.276Z,9.745505
2023-09-25T01:28:53.226Z,9.744990
2023-09-25T01:29:53.226Z,9.745104
2023-09-25T01:30:53.276Z,9.745360
2023-09-25T01:31:53.230Z,9.745480
2023-09-25T01:32:53.575Z,9.745807
2023-09-25T01:33:53.276Z,9.745431
2023-09-25T01:34:53.184Z,9.745450
2023-09-25T01:35:53.174Z,9.745103
2023-09-25T01:36:53.190Z,9.745435
2023-09-25T01:37:53.162Z,9.745060
2023-09-25T01:38:53.152Z,9.744883
2023-09-25T01:39:53.139Z,9.745327
2023-09-25T01:40:54.140Z,9.745623
2023-09-25T01:41:53.154Z,9.745430
2023-09-25T01:42:53.118Z,9.745156
2023-09-25T01:43:53.109Z,9.745567
2023-09-25T01:44:53.103Z,9.745638
2023-09-25T01:45:53.149Z,9.745771
2023-09-25T01:46:53.110Z,9.745828
2023-09-25T01:47:54.216Z,9.745522
2023-09-25T01:48:53.125Z,9.745296
2023-09-25T01:49:53.068Z,9.745144
2023-09-25T01:50:53.092Z,9.745439
2023-09-25T01:51:53.061Z,9.745384
2023-09-25T01:52:53.081Z,9.745315
2023-09-25T01:53:53.034Z,9.745800
2023-09-25T01:54:53.035Z,9.745531
2023-09-25T01:55:53.042Z,9.745550
2023-09-25T01:56:53.012Z,9.745496
2023-09-25T01:57:53.009Z,9.745628
2023-09-25T01:58:53.005Z,9.745284
2023-09-25T01:59:52.988Z,9.745382
2023-09-25T02:00:53.014Z,9.745435
2023-09-25T02:01:53.004Z,9.745651
2023-09-25T02:02:53.084Z,9.745592
2023-09-25T02:03:53.118Z,9.745330
2023-09-25T02:04:53.240Z,9.745185
2023-09-25T02:05:52.976Z,9.745564
2023-09-25T02:06:52.927Z,9.745685
2023-09-25T02:07:52.928Z,9.745662
2023-09-25T02:08:52.927Z,9.745420
2023-09-25T02:09:52.934Z,9.745418
2023-09-25T02:10:52.929Z,9.745738
2023-09-25T02:11:52.898Z,9.745597
2023-09-25T02:12:52.894Z,9.745454
2023-09-25T02:13:52.878Z,9.745389
2023-09-25T02:14:52.889Z,9.745206
2023-09-25T02:15:53.070Z,9.745427
2023-09-25T02:16:52.852Z,9.745503
2023-09-25T02:17:52.884Z,9.745352
2023-09-25T02:18:52.919Z,9.745225
2023-09-25T02:19:52.864Z,9.745461
2023-09-25T02:20:52.832Z,9.745453
2023-09-25T02:21:52.808Z,9.745472
2023-09-25T02:22:52.849Z,9.745587
2023-09-25T02:23:52.825Z,9.745599
2023-09-25T02:24:52.821Z,9.745579
2023-09-25T02:25:52.782Z,9.745634
2023-09-25T02:26:52.774Z,9.745901
2023-09-25T02:27:52.768Z,9.745673
2023-09-25T02:28:52.792Z,9.745695
2023-09-25T02:29:52.749Z,9.745397
2023-09-25T02:30:52.816Z,9.745459
2023-09-25T02:31:52.749Z,9.745501
2023-09-25T02:32:52.742Z,9.745481
2023-09-25T02:33:52.753Z,9.745538
2023-09-25T02:34:52.703Z,9.745253
2023-09-25T02:35:52.704Z,9.745520
2023-09-25T02:36:52.690Z,9.746058
2023-09-25T02:37:52.680Z,9.746163
2023-09-25T02:38:52.697Z,9.746384
2023-09-25T02:39:52.711Z,9.745686
2023-09-25T02:40:52.655Z,9.745816
2023-09-25T02:41:53.651Z,9.744757
2023-09-25T02:42:52.722Z,9.745075
2023-09-25T02:43:52.663Z,9.745328
2023-09-25T02:44:52.634Z,9.744961
2023-09-25T02:45:52.729Z,9.744745
2023-09-25T02:46:52.623Z,9.744261
2023-09-25T02:47:52.653Z,9.744302
2023-09-25T02:48:52.851Z,9.745271
2023-09-25T02:49:52.597Z,9.745260
2023-09-25T02:50:52.590Z,9.745485
2023-09-25T02:51:52.588Z,9.745211
2023-09-25T02:52:52.599Z,9.745172
2023-09-25T02:53:52.569Z,9.745269
2023-09-25T02:54:52.558Z,9.745264
2023-09-25T02:55:52.548Z,9.745638
2023-09-25T02:56:52.547Z,9.746177
2023-09-25T02:57:52.601Z,9.746344
2023-09-25T02:58:52.526Z,9.745934
2023-09-25T02:59:52.534Z,9.745688
2023-09-25T03:00:52.534Z,9.745508
2023-09-25T03:01:52.504Z,9.745560
2023-09-25T03:02:52.537Z,9.745264
2023-09-25T03:03:52.513Z,9.745023
2023-09-25T03:04:52.505Z,9.745168
2023-09-25T03:05:52.483Z,9.745902
2023-09-25T03:06:52.498Z,9.745499
2023-09-25T03:07:52.488Z,9.745540
2023-09-25T03:08:52.455Z,9.745638
2023-09-25T03:09:52.471Z,9.745070
2023-09-25T03:10:52.461Z,9.745514
2023-09-25T03:11:52.472Z,9.745659
2023-09-25T03:12:52.514Z,9.745760
2023-09-25T03:13:52.438Z,9.745753
2023-09-25T03:14:52.408Z,9.745560
2023-09-25T03:15:52.465Z,9.745451
2023-09-25T03:16:52.421Z,9.745437
2023-09-25T03:17:52.402Z,9.745457
2023-09-25T03:18:52.583Z,9.745406
2023-09-25T03:19:52.373Z,9.745594
2023-09-25T03:20:52.415Z,9.745603
2023-09-25T03:21:52.383Z,9.745513
2023-09-25T03:22:52.393Z,9.745821
2023-09-25T03:23:54.128Z,9.745577
2023-09-25T03:24:52.327Z,9.745370
2023-09-25T03:25:52.375Z,9.745296
2023-09-25T03:26:52.315Z,9.745261
2023-09-25T03:27:52.304Z,9.745573
2023-09-25T03:28:52.295Z,9.745371
2023-09-25T03:29:52.289Z,9.745313
2023-09-25T03:30:52.339Z,9.745358
2023-09-25T03:31:52.270Z,9.745210
2023-09-25T03:32:52.290Z,9.745360
2023-09-25T03:33:52.256Z,9.745078
2023-09-25T03:34:52.271Z,9.746126
2023-09-25T03:35:52.269Z,9.745630
2023-09-25T03:36:52.291Z,9.745605
2023-09-25T03:37:52.224Z,9.745437
2023-09-25T03:38:52.225Z,9.745497
2023-09-25T03:39:52.258Z,9.745310
2023-09-25T03:40:52.203Z,9.745329
2023-09-25T03:41:52.186Z,9.745338
2023-09-25T03:42:52.183Z,9.745538
2023-09-25T03:43:52.177Z,9.745575
2023-09-25T03:44:52.193Z,9.745544
2023-09-25T03:45:52.214Z,9.745468
2023-09-25T03:46:52.200Z,9.745383
2023-09-25T03:47:52.181Z,9.745362
2023-09-25T03:48:52.459Z,9.745520
2023-09-25T03:49:52.158Z,9.745438
2023-09-25T03:50:52.133Z,9.745424
2023-09-25T03:51:52.161Z,9.745346
2023-09-25T03:52:52.113Z,9.745092
2023-09-25T03:53:53.415Z,9.745172
2023-09-25T03:54:53.132Z,9.745364
2023-09-25T03:55:52.089Z,9.745274
2023-09-25T03:56:52.091Z,9.745422
2023-09-25T03:57:52.118Z,9.745116
2023-09-25T03:58:52.092Z,9.745326
2023-09-25T03:59:52.088Z,9.745313
2023-09-25T04:00:52.108Z,9.745521
2023-09-25T04:01:52.049Z,9.745336
2023-09-25T04:02:52.137Z,9.745249
2023-09-25T04:03:52.089Z,9.745400
2023-09-25T04:04:52.089Z,9.745486
2023-09-25T04:05:52.015Z,9.745291
2023-09-25T04:06:52.007Z,9.745365
2023-09-25T04:07:52.010Z,9.745316
2023-09-25T04:08:52.293Z,9.745230
2023-09-25T04:09:51.969Z,9.745392
2023-09-25T04:10:52.974Z,9.745324
2023-09-25T04:11:51.976Z,9.745421
2023-09-25T04:12:51.976Z,9.745415
2023-09-25T04:13:51.988Z,9.745277
2023-09-25T04:14:51.941Z,9.745294
2023-09-25T04:15:51.958Z,9.745332
2023-09-25T04:16:51.961Z,9.745438
2023-09-25T04:17:51.960Z,9.745194
2023-09-25T04:18:52.187Z,9.745371
2023-09-25T04:19:51.957Z,9.745291
2023-09-25T04:20:51.898Z,9.745325
2023-09-25T04:21:51.918Z,9.745522
2023-09-25T04:22:51.905Z,9.745510
2023-09-25T04:23:51.902Z,9.745384
2023-09-25T04:24:51.915Z,9.745476
2023-09-25T04:25:51.853Z,9.745341
2023-09-25T04:26:51.857Z,9.745383
2023-09-25T04:27:52.030Z,9.745442
2023-09-25T04:28:51.827Z,9.745418
2023-09-25T04:29:51.849Z,9.745440
2023-09-25T04:30:51.833Z,9.744909
2023-09-25T04:31:51.881Z,9.745132
2023-09-25T04:32:51.846Z,9.745429
2023-09-25T04:33:51.837Z,9.745695
2023-09-25T04:34:51.796Z,9.745731
2023-09-25T04:35:51.775Z,9.745604
2023-09-25T04:36:51.810Z,9.745700
2023-09-25T04:37:51.776Z,9.745754
2023-09-25T04:38:51.754Z,9.745704
2023-09-25T04:39:51.775Z,9.745869
2023-09-25T04:40:51.739Z,9.745820
2023-09-25T04:41:51.753Z,9.745690
2023-09-25T04:42:51.776Z,9.745573
2023-09-25T04:43:51.705Z,9.745382
2023-09-25T04:44:51.714Z,9.745553
2023-09-25T04:45:51.739Z,9.745488
2023-09-25T04:46:51.727Z,9.745681
2023-09-25T04:47:51.707Z,9.745551
2023-09-25T04:48:51.917Z,9.745513
2023-09-25T04:49:51.666Z,9.745638
2023-09-25T04:50:51.713Z,9.745424
2023-09-25T04:51:51.705Z,9.745434
2023-09-25T04:52:51.639Z,9.745301
2023-09-25T04:53:51.626Z,9.745535
2023-09-25T04:54:51.655Z,9.745643
2023-09-25T04:55:51.656Z,9.745449
2023-09-25T04:56:51.604Z,9.745503
2023-09-25T04:57:51.735Z,9.745436
2023-09-25T04:58:51.825Z,9.745028
2023-09-25T04:59:51.585Z,9.745105
2023-09-25T05:00:51.672Z,9.745217
2023-09-25T05:01:51.603Z,9.745420
2023-09-25T05:02:51.612Z,9.745624
2023-09-25T05:03:51.597Z,9.745692
2023-09-25T05:04:51.571Z,9.745686
2023-09-25T05:05:51.621Z,9.745497
2023-09-25T05:06:51.611Z,9.745502
2023-09-25T05:07:51.526Z,9.745429
2023-09-25T05:08:51.511Z,9.745277
2023-09-25T05:09:51.551Z,9.745379
2023-09-25T05:10:51.491Z,9.745470
2023-09-25T05:11:51.491Z,9.745571
2023-09-25T05:12:51.522Z,9.745623
2023-09-25T05:13:51.479Z,9.745300
2023-09-25T05:14:51.492Z,9.745223
2023-09-25T05:15:51.487Z,9.745432
2023-09-25T05:16:51.482Z,9.745410
2023-09-25T05:17:51.488Z,9.745479
2023-09-25T05:18:51.665Z,9.745182
2023-09-25T05:19:51.451Z,9.745358
2023-09-25T05:20:51.414Z,9.745235
2023-09-25T05:21:51.440Z,9.745221
2023-09-25T05:22:51.390Z,9.745403
2023-09-25T05:23:51.391Z,9.745433
2023-09-25T05:24:51.461Z,9.745382
2023-09-25T05:25:51.373Z,9.745368
2023-09-25T05:26:51.444Z,9.745453
2023-09-25T05:27:51.468Z,9.745246
2023-09-25T05:28:51.350Z,9.745360
2023-09-25T05:29:51.361Z,9.745256
2023-09-25T05:30:51.483Z,9.745484
2023-09-25T05:31:51.357Z,9.745286
2023-09-25T05:32:51.351Z,9.745470
2023-09-25T05:33:51.374Z,9.745427
2023-09-25T05:34:51.317Z,9.745530
2023-09-25T05:35:52.597Z,9.745657
2023-09-25T05:36:52.281Z,9.745493
2023-09-25T05:37:51.421Z,9.745490
2023-09-25T05:38:51.423Z,9.745450
2023-09-25T05:39:51.301Z,9.745419
2023-09-25T05:40:51.244Z,9.745563
2023-09-25T05:41:51.232Z,9.745323
2023-09-25T05:42:51.262Z,9.745463
2023-09-25T05:43:51.249Z,9.745724
2023-09-25T05:44:51.210Z,9.745526
2023-09-25T05:45:51.210Z,9.745469
2023-09-25T05:46:51.220Z,9.745496
2023-09-25T05:47:51.283Z,9.745747
2023-09-25T05:48:51.526Z,9.745577
2023-09-25T05:49:51.227Z,9.745242
2023-09-25T05:50:51.162Z,9.745296
2023-09-25T05:51:51.177Z,9.745557
2023-09-25T05:52:51.162Z,9.745488
2023-09-25T05:53:51.168Z,9.745456
2023-09-25T05:54:51.190Z,9.745472
2023-09-25T05:55:51.125Z,9.745662
2023-09-25T05:56:51.124Z,9.745336
2023-09-25T05:57:51.216Z,9.745299
2023-09-25T05:58:51.129Z,9.745384
2023-09-25T05:59:51.090Z,9.745570
2023-09-25T06:00:51.145Z,9.745436
2023-09-25T06:01:51.088Z,9.745495
2023-09-25T06:02:51.153Z,9.745374
2023-09-25T06:03:51.266Z,9.745483
2023-09-25T06:04:51.154Z,9.745525
2023-09-25T06:05:51.044Z,9.745571
2023-09-25T06:06:51.106Z,9.745543
2023-09-25T06:07:51.067Z,9.745667
2023-09-25T06:08:51.274Z,9.745603
2023-09-25T06:09:51.098Z,9.745593
2023-09-25T06:10:51.001Z,9.745691
2023-09-25T06:11:51.042Z,9.745590
2023-09-25T06:12:51.007Z,9.745336
2023-09-25T06:13:50.981Z,9.745525
2023-09-25T06:14:50.970Z,9.745468
2023-09-25T06:15:51.032Z,9.745331
2023-09-25T06:16:51.006Z,9.745423
2023-09-25T06:17:51.040Z,9.745511
2023-09-25T06:18:51.093Z,9.745302
2023-09-25T06:19:50.934Z,9.745422
2023-09-25T06:20:50.940Z,9.745467
2023-09-25T06:21:51.000Z,9.745270
2023-09-25T06:22:50.911Z,9.745394
2023-09-25T06:23:50.899Z,9.745478
2023-09-25T06:24:50.915Z,9.745418
2023-09-25T06:25:50.913Z,9.745590
2023-09-25T06:26:50.898Z,9.745551
2023-09-25T06:27:51.929Z,9.745417
2023-09-25T06:28:51.074Z,9.745222
2023-09-25T06:29:50.852Z,9.745386
2023-09-25T06:30:50.954Z,9.745370
2023-09-25T06:32:01.046Z,9.745353
2023-09-25T06:32:52.860Z,9.745255
2023-09-25T06:33:50.878Z,9.745440
2023-09-25T06:34:50.884Z,9.745450
2023-09-25T06:35:50.831Z,9.745294
2023-09-25T06:36:50.853Z,9.745375
2023-09-25T06:37:50.803Z,9.745446
2023-09-25T06:38:50.947Z,9.745502
2023-09-25T06:39:50.849Z,9.745510
2023-09-25T06:40:50.798Z,9.745535
2023-09-25T06:41:50.775Z,9.745483
2023-09-25T06:42:50.775Z,9.745499
2023-09-25T06:43:50.741Z,9.745571
2023-09-25T06:44:50.767Z,9.745445
2023-09-25T06:45:50.810Z,9.745595
2023-09-25T06:46:50.777Z,9.745592
2023-09-25T06:47:50.799Z,9.745630
2023-09-25T06:48:50.855Z,9.745761
2023-09-25T06:49:50.726Z,9.745618
2023-09-25T06:50:50.709Z,9.745839
2023-09-25T06:51:50.731Z,9.745678
2023-09-25T06:52:50.829Z,9.745525
2023-09-25T06:53:50.738Z,9.745464
2023-09-25T06:54:50.727Z,9.745502
2023-09-25T06:55:50.659Z,9.745542
2023-09-25T06:56:50.664Z,9.745445
2023-09-25T06:57:50.728Z,9.745441
2023-09-25T06:58:50.910Z,9.745500
2023-09-25T06:59:50.631Z,9.745586
2023-09-25T07:00:56.601Z,9.745662
2023-09-25T07:01:52.662Z,9.745498
2023-09-25T07:02:50.665Z,9.745237
2023-09-25T07:03:50.746Z,9.745376
2023-09-25T07:04:50.779Z,9.745413
2023-09-25T07:05:50.592Z,9.745314
2023-09-25T07:06:50.655Z,9.745414
2023-09-25T07:07:50.613Z,9.745432
2023-09-25T07:08:50.841Z,9.745498
2023-09-25T07:09:50.565Z,9.745442
2023-09-25T07:10:50.575Z,9.744799
2023-09-25T07:11:50.548Z,9.745094
2023-09-25T07:12:50.590Z,9.745492
2023-09-25T07:13:50.527Z,9.745597
2023-09-25T07:14:50.518Z,9.745628
2023-09-25T07:15:51.566Z,9.745662
2023-09-25T07:16:50.608Z,9.745594
2023-09-25T07:17:50.539Z,9.745522
2023-09-25T07:18:50.834Z,9.745784
2023-09-25T07:19:50.536Z,9.745638
2023-09-25T07:20:50.485Z,9.745453
2023-09-25T07:21:50.561Z,9.745054
2023-09-25T07:22:50.507Z,9.745204
2023-09-25T07:23:50.446Z,9.745328
2023-09-25T07:24:51.585Z,9.745187
2023-09-25T07:25:50.455Z,9.745354
2023-09-25T07:26:50.466Z,9.745224
2023-09-25T07:27:50.481Z,9.745325
2023-09-25T07:28:50.728Z,9.745468
2023-09-25T07:29:50.436Z,9.745790
2023-09-25T07:30:50.499Z,9.746100
2023-09-25T07:31:50.486Z,9.746159
2023-09-25T07:32:50.439Z,9.746525
2023-09-25T07:33:50.455Z,9.747060
2023-09-25T07:34:50.388Z,9.746710
2023-09-25T07:35:50.386Z,9.746348
2023-09-25T07:36:50.501Z,9.746176
2023-09-25T07:37:50.380Z,9.745421
2023-09-25T07:38:50.529Z,9.745000
2023-09-25T07:39:50.396Z,9.745393
2023-09-25T07:40:59.929Z,9.745308
2023-09-25T07:41:52.375Z,9.745255
2023-09-25T07:42:50.415Z,9.745330
2023-09-25T07:43:57.734Z,9.745175
2023-09-25T07:44:52.331Z,9.745261
2023-09-25T07:45:50.406Z,9.745302
2023-09-25T07:46:50.418Z,9.745331
2023-09-25T07:47:50.363Z,9.745302
2023-09-25T07:48:50.613Z,9.745420
2023-09-25T07:49:50.811Z,9.745335
2023-09-25T07:50:50.318Z,9.745246
2023-09-25T07:51:50.316Z,9.745263
2023-09-25T07:52:51.283Z,9.745408
2023-09-25T07:53:50.273Z,9.745296
2023-09-25T07:54:50.498Z,9.745178
2023-09-25T07:55:50.289Z,9.745386
2023-09-25T07:56:50.245Z,9.745310
2023-09-25T07:57:51.318Z,9.745255
2023-09-25T07:58:50.517Z,9.745252
2023-09-25T07:59:50.263Z,9.745449
2023-09-25T08:00:51.699Z,9.745520
2023-09-25T08:01:51.358Z,9.745605
2023-09-25T08:02:50.285Z,9.745576
2023-09-25T08:03:50.273Z,9.745296
2023-09-25T08:04:50.337Z,9.745511
2023-09-25T08:05:50.202Z,9.745543
2023-09-25T08:06:50.220Z,9.745510
2023-09-25T08:07:50.196Z,9.745399
2023-09-25T08:08:50.435Z,9.745440
2023-09-25T08:09:50.214Z,9.745608
2023-09-25T08:10:50.168Z,9.745560
2023-09-25T08:11:50.161Z,9.745592
2023-09-25T08:12:50.167Z,9.745606
2023-09-25T08:13:50.169Z,9.745435
2023-09-25T08:14:50.149Z,9.745423
2023-09-25T08:15:50.168Z,9.745414
2023-09-25T08:16:50.190Z,9.745409
2023-09-25T08:17:50.146Z,9.745382
2023-09-25T08:18:50.307Z,9.745409
2023-09-25T08:19:50.104Z,9.745557
2023-09-25T08:20:50.094Z,9.745420
2023-09-25T08:21:50.111Z,9.745311
2023-09-25T08:22:50.103Z,9.745255
2023-09-25T08:23:51.099Z,9.745372
2023-09-25T08:24:50.106Z,9.745378
2023-09-25T08:25:50.104Z,9.745090
2023-09-25T08:26:50.052Z,9.745038
2023-09-25T08:27:50.126Z,9.745129
2023-09-25T08:28:50.298Z,9.745373
2023-09-25T08:29:50.038Z,9.745545
2023-09-25T08:30:50.062Z,9.745543
2023-09-25T08:31:50.060Z,9.745461
2023-09-25T08:32:50.062Z,9.745251
2023-09-25T08:33:50.056Z,9.745344
2023-09-25T08:34:50.014Z,9.745251
2023-09-25T08:35:49.997Z,9.745351
2023-09-25T08:36:50.052Z,9.745431
2023-09-25T08:37:50.023Z,9.745416
2023-09-25T08:38:50.116Z,9.745513
2023-09-25T08:39:50.028Z,9.745422
2023-09-25T08:40:49.967Z,9.745499
2023-09-25T08:41:49.985Z,9.745415
2023-09-25T08:42:52.748Z,9.745446
2023-09-25T08:43:50.941Z,9.745476
2023-09-25T08:44:49.935Z,9.745517
2023-09-25T08:45:50.039Z,9.745393
2023-09-25T08:46:50.002Z,9.745456
2023-09-25T08:47:50.032Z,9.745549
2023-09-25T08:48:50.159Z,9.745653
2023-09-25T08:49:49.917Z,9.745499
2023-09-25T08:50:49.945Z,9.745465
2023-09-25T08:51:49.970Z,9.745548
2023-09-25T08:52:49.951Z,9.745614
2023-09-25T08:53:49.878Z,9.745586
2023-09-25T08:54:50.386Z,9.745537
2023-09-25T08:55:50.890Z,9.745525
2023-09-25T08:56:49.883Z,9.745528
2023-09-25T08:57:49.898Z,9.745609
2023-09-25T08:58:49.945Z,9.745784
2023-09-25T08:59:49.838Z,9.745700
2023-09-25T09:00:49.997Z,9.745711
2023-09-25T09:01:49.896Z,9.745688
2023-09-25T09:02:49.886Z,9.745817
2023-09-25T09:03:49.891Z,9.746058
2023-09-25T09:04:49.844Z,9.746228
2023-09-25T09:05:49.827Z,9.745896
2023-09-25T09:06:49.812Z,9.745356
2023-09-25T09:07:49.792Z,9.745428
2023-09-25T09:08:49.895Z,9.745262
2023-09-25T09:09:49.818Z,9.745594
2023-09-25T09:10:49.790Z,9.744879
2023-09-25T09:11:49.758Z,9.745381
2023-09-25T09:13:01.692Z,9.745276
2023-09-25T09:13:51.749Z,9.745391
2023-09-25T09:14:49.761Z,9.745613
2023-09-25T09:15:49.764Z,9.745840
2023-09-25T09:16:49.763Z,9.745667
2023-09-25T09:17:49.730Z,9.745671
2023-09-25T09:18:50.121Z,9.745500
2023-09-25T09:19:50.738Z,9.745474
2023-09-25T09:20:49.698Z,9.745330
2023-09-25T09:21:49.889Z,9.745306
2023-09-25T09:22:49.836Z,9.745370
2023-09-25T09:23:49.710Z,9.745240
2023-09-25T09:24:49.708Z,9.745689
2023-09-25T09:25:49.663Z,9.746017
2023-09-25T09:26:49.676Z,9.745477
2023-09-25T09:27:49.707Z,9.745609
2023-09-25T09:28:49.995Z,9.745749
2023-09-25T09:29:49.636Z,9.745749
2023-09-25T09:30:49.711Z,9.745747
2023-09-25T09:31:49.617Z,9.745763
2023-09-25T09:32:49.679Z,9.745739
2023-09-25T09:33:49.741Z,9.745584
2023-09-25T09:34:49.674Z,9.745543
2023-09-25T09:35:49.595Z,9.745770
2023-09-25T09:36:49.601Z,9.745915
2023-09-25T09:37:49.604Z,9.745675
2023-09-25T09:38:49.828Z,9.745771
2023-09-25T09:39:49.588Z,9.745945
2023-09-25T09:40:49.561Z,9.746033
2023-09-25T09:41:49.554Z,9.745725
2023-09-25T09:42:49.590Z,9.745727
2023-09-25T09:43:49.547Z,9.745760
2023-09-25T09:44:49.536Z,9.745997
2023-09-25T09:45:49.575Z,9.746313
2023-09-25T09:46:49.554Z,9.746103
2023-09-25T09:47:49.541Z,9.746015
2023-09-25T09:48:49.815Z,9.745832
2023-09-25T09:49:49.512Z,9.745914
2023-09-25T09:50:49.496Z,9.745929
2023-09-25T09:51:49.514Z,9.745465
2023-09-25T09:52:49.508Z,9.745589
2023-09-25T09:53:49.473Z,9.745580
2023-09-25T09:54:49.494Z,9.745667
2023-09-25T09:55:49.455Z,9.745794
2023-09-25T09:56:49.490Z,9.745876
2023-09-25T09:57:49.477Z,9.746013
2023-09-25T09:58:49.673Z,9.745917
2023-09-25T09:59:49.430Z,9.745640
2023-09-25T10:00:49.479Z,9.745654
2023-09-25T10:01:49.589Z,9.745745
2023-09-25T10:02:49.529Z,9.745959
2023-09-25T10:03:49.553Z,9.745900
2023-09-25T10:04:49.502Z,9.745795
2023-09-25T10:05:49.393Z,9.745691
2023-09-25T10:06:49.430Z,9.745533
2023-09-25T10:07:49.372Z,9.745854
2023-09-25T10:08:49.475Z,9.745642
2023-09-25T10:09:49.374Z,9.745630
2023-09-25T10:10:49.352Z,9.745349
2023-09-25T10:11:49.362Z,9.745085
2023-09-25T10:12:49.400Z,9.745071
2023-09-25T10:13:49.332Z,9.745032
2023-09-25T10:14:49.322Z,9.745637
2023-09-25T10:15:49.441Z,9.745735
2023-09-25T10:16:49.336Z,9.745786
2023-09-25T10:17:49.393Z,9.745634
2023-09-25T10:18:49.478Z,9.745367
2023-09-25T10:19:49.282Z,9.745493
2023-09-25T10:20:49.333Z,9.745498
2023-09-25T10:21:49.276Z,9.745297
2023-09-25T10:22:49.261Z,9.745406
2023-09-25T10:23:49.545Z,9.745597
2023-09-25T10:24:49.292Z,9.745532
2023-09-25T10:25:49.267Z,9.745417
2023-09-25T10:26:49.234Z,9.745380
2023-09-25T10:27:49.304Z,9.745475
2023-09-25T10:28:49.217Z,9.745995
2023-09-25T10:29:49.232Z,9.745927
2023-09-25T10:30:49.272Z,9.745352
2023-09-25T10:31:49.199Z,9.745564
2023-09-25T10:32:49.240Z,9.745737
2023-09-25T10:33:49.412Z,9.745480
2023-09-25T10:34:49.215Z,9.745454
2023-09-25T10:35:49.780Z,9.745640
2023-09-25T10:36:49.572Z,9.745486
2023-09-25T10:37:49.156Z,9.745611
2023-09-25T10:38:49.146Z,9.745594
2023-09-25T10:39:49.191Z,9.745955
2023-09-25T10:40:49.133Z,9.745955
2023-09-25T10:41:49.126Z,9.745955
2023-09-25T10:42:49.143Z,9.745955
2023-09-25T10:43:49.382Z,9.745624
2023-09-25T10:44:49.134Z,9.745624
2023-09-25T10:45:49.242Z,9.745624
2023-09-25T10:46:49.144Z,9.745624
2023-09-25T10:47:49.124Z,9.745624
2023-09-25T10:48:49.147Z,9.745624
2023-09-25T10:49:49.088Z,9.745549
2023-09-25T10:50:49.066Z,9.745549
2023-09-25T10:51:49.088Z,9.745307
2023-09-25T10:52:49.048Z,9.745307
2023-09-25T10:53:49.280Z,9.745307
2023-09-25T10:54:49.051Z,9.745522
2023-09-25T10:55:49.020Z,9.745198
2023-09-25T10:56:49.017Z,9.745868
2023-09-25T10:57:50.480Z,9.744651
2023-09-25T10:58:49.289Z,9.745026
2023-09-25T10:59:48.995Z,9.745716
2023-09-25T11:00:49.024Z,9.745778
2023-09-25T11:01:49.023Z,9.745451
2023-09-25T11:02:49.096Z,9.745567
2023-09-25T11:03:50.405Z,9.745464
2023-09-25T11:04:48.994Z,9.745468
2023-09-25T11:05:48.949Z,9.745496
2023-09-25T11:06:48.999Z,9.745442
2023-09-25T11:07:48.955Z,9.745483
2023-09-25T11:08:48.921Z,9.745533
2023-09-25T11:09:48.936Z,9.745511
2023-09-25T11:10:48.959Z,9.745656
2023-09-25T11:11:48.964Z,9.745654
2023-09-25T11:12:48.988Z,9.745661
2023-09-25T11:13:49.104Z,9.745340
2023-09-25T11:14:48.880Z,9.745376
2023-09-25T11:15:48.912Z,9.745493
2023-09-25T11:16:48.916Z,9.745440
2023-09-25T11:17:48.873Z,9.745412
2023-09-25T11:18:48.911Z,9.745432
2023-09-25T11:19:48.846Z,9.745372
2023-09-25T11:20:48.839Z,9.745398
2023-09-25T11:21:48.970Z,9.745314
2023-09-25T11:22:48.814Z,9.745407
2023-09-25T11:23:48.965Z,9.745403
2023-09-25T11:24:48.817Z,9.745234
2023-09-25T11:25:48.819Z,9.745405
2023-09-25T11:26:48.811Z,9.745430
2023-09-25T11:27:48.796Z,9.745461
2023-09-25T11:28:48.786Z,9.745553
2023-09-25T11:29:48.805Z,9.745618
2023-09-25T11:30:48.839Z,9.745481
2023-09-25T11:32:02.146Z,9.745451
2023-09-25T11:32:50.780Z,9.745203
2023-09-25T11:33:48.950Z,9.745205
2023-09-25T11:34:48.741Z,9.745624
2023-09-25T11:35:48.773Z,9.745564
2023-09-25T11:36:48.712Z,9.745474
2023-09-25T11:37:50.617Z,9.745377
2023-09-25T11:38:48.880Z,9.745562
2023-09-25T11:39:48.729Z,9.745260
2023-09-25T11:40:48.700Z,9.745373
2023-09-25T11:41:48.674Z,9.745634
2023-09-25T11:42:48.674Z,9.745546
2023-09-25T11:43:48.901Z,9.745365
2023-09-25T11:44:48.671Z,9.745544